Time;durP1;ratioP1;P1;durP2;ratioP2;P2;SDS_P1;SDS_P2;PMS_P1;PMS_P2;Temp;Humidity;BMP_temperature;BMP_pressure;BME280_temperature;BME280_humidity;BME280_pressure;Samples;Min_cycle;Max_cycle;Signal;HPM_P1;HPM_P2
2021/09/04 16:57:32;;;;;;;11.32;6.25;;;27.90;21.40;;;;;;5100917;27;20442;-64
2021/09/04 16:59:57;;;;;;;7.05;6.10;;;28.00;21.90;;;;;;5089720;28;20481;-61
2021/09/04 17:02:23;;;;;;;6.93;6.03;;;28.00;22.10;;;;;;5089729;28;20478;-62
2021/09/04 17:04:49;;;;;;;9.88;6.72;;;28.00;22.20;;;;;;5077801;28;20143;-62
2021/09/04 17:07:14;;;;;;;7.53;6.07;;;28.00;22.30;;;;;;5089183;28;20027;-62
2021/09/04 17:09:40;;;;;;;7.15;5.80;;;28.00;22.30;;;;;;5089804;28;20024;-60
2021/09/04 17:12:06;;;;;;;8.70;6.38;;;28.00;22.20;;;;;;5088212;28;20386;-61
2021/09/04 17:14:32;;;;;;;6.93;6.25;;;28.00;22.30;;;;;;5083269;28;20055;-61
2021/09/04 17:16:57;;;;;;;7.38;5.90;;;27.90;22.60;;;;;;5070699;28;20404;-61
2021/09/04 17:19:23;;;;;;;9.70;6.03;;;27.80;22.80;;;;;;5089744;28;20465;-61
2021/09/04 17:21:48;;;;;;;6.45;5.85;;;27.90;23.70;;;;;;5088606;28;20402;-61
2021/09/04 17:24:14;;;;;;;7.10;6.13;;;27.80;23.80;;;;;;5089778;28;20138;-61
2021/09/04 17:26:40;;;;;;;7.65;6.00;;;27.60;23.40;;;;;;5088321;28;20032;-61
2021/09/04 17:29:05;;;;;;;5.95;5.35;;;27.60;23.30;;;;;;5080854;28;20084;-61
2021/09/04 17:31:32;;;;;;;7.10;6.30;;;27.60;23.40;;;;;;5080268;28;20513;-61
2021/09/04 17:33:58;;;;;;;9.90;6.55;;;27.60;23.70;;;;;;5088700;28;20470;-62
2021/09/04 17:36:23;;;;;;;12.60;10.30;;;27.50;24.00;;;;;;5089533;28;20040;-62
2021/09/04 17:38:49;;;;;;;12.57;7.53;;;27.40;24.50;;;;;;5087264;28;20119;-62
2021/09/04 17:41:15;;;;;;;9.73;7.32;;;27.40;25.10;;;;;;5087980;28;20541;-62
2021/09/04 17:43:41;;;;;;;8.68;6.70;;;27.30;24.60;;;;;;5088165;28;20412;-62
2021/09/04 17:46:07;;;;;;;8.10;6.15;;;27.30;25.30;;;;;;5089500;28;20058;-62
2021/09/04 17:48:37;;;;;;;10.50;6.88;;;27.20;24.90;;;;;;5088373;28;20111;-62
2021/09/04 17:51:04;;;;;;;10.70;7.22;;;27.20;25.20;;;;;;5089126;28;20032;-61
2021/09/04 17:53:30;;;;;;;7.28;6.55;;;27.10;26.00;;;;;;5085493;28;20028;-61
2021/09/04 17:55:56;;;;;;;8.35;6.45;;;27.00;26.10;;;;;;5086829;28;20520;-61
2021/09/04 17:58:22;;;;;;;7.22;6.55;;;27.00;25.70;;;;;;5088378;28;20074;-61
2021/09/04 18:00:48;;;;;;;8.07;6.80;;;27.00;25.50;;;;;;5089484;28;20024;-61
2021/09/04 18:03:13;;;;;;;8.02;7.32;;;26.90;26.00;;;;;;5087601;28;20073;-61
2021/09/04 18:05:39;;;;;;;11.85;10.13;;;26.90;26.30;;;;;;5089092;28;20103;-61
2021/09/04 18:08:05;;;;;;;8.05;7.07;;;26.90;26.90;;;;;;5077254;28;20035;-62
2021/09/04 18:10:32;;;;;;;7.45;6.72;;;26.90;26.90;;;;;;5074696;28;20391;-62
2021/09/04 18:12:58;;;;;;;12.07;10.80;;;26.70;25.80;;;;;;5072683;28;20420;-61
2021/09/04 18:15:23;;;;;;;9.48;8.45;;;26.70;26.20;;;;;;5074566;28;20025;-61
2021/09/04 18:17:52;;;;;;;9.38;8.38;;;26.60;26.20;;;;;;5074672;28;20033;-61
2021/09/04 18:20:18;;;;;;;12.20;8.35;;;26.70;26.50;;;;;;5072734;28;20028;-61
2021/09/04 18:22:44;;;;;;;13.75;11.75;;;26.60;26.70;;;;;;5072142;28;20111;-61
2021/09/04 18:25:10;;;;;;;8.75;7.43;;;26.60;27.30;;;;;;5075607;28;20099;-61
2021/09/04 18:27:36;;;;;;;10.30;6.57;;;26.60;26.90;;;;;;5072849;28;20021;-62
2021/09/04 18:30:04;;;;;;;10.45;7.28;;;26.50;27.00;;;;;;5074385;28;20057;-62
2021/09/04 18:32:30;;;;;;;9.20;7.15;;;26.50;27.60;;;;;;5074390;28;20044;-61
2021/09/04 18:34:56;;;;;;;11.43;7.15;;;26.50;27.30;;;;;;5075397;28;20027;-62
2021/09/04 18:37:22;;;;;;;18.42;13.30;;;26.50;27.00;;;;;;5072348;28;20736;-61
2021/09/04 18:39:48;;;;;;;11.30;8.82;;;26.40;27.00;;;;;;5075058;28;20017;-62
2021/09/04 18:42:13;;;;;;;10.35;7.65;;;26.40;27.90;;;;;;5074012;28;20549;-62
2021/09/04 18:44:39;;;;;;;8.43;7.50;;;26.40;28.00;;;;;;5055240;28;20071;-61
2021/09/04 18:47:06;;;;;;;13.73;10.43;;;26.30;28.20;;;;;;5063184;28;22151;-62
2021/09/04 18:49:33;;;;;;;9.48;8.43;;;26.20;28.50;;;;;;5073176;28;20160;-61
2021/09/04 18:51:59;;;;;;;13.45;10.70;;;26.20;28.70;;;;;;5074814;28;20435;-62
2021/09/04 18:54:24;;;;;;;13.45;10.82;;;26.20;28.80;;;;;;5072744;28;20032;-62
2021/09/04 18:56:50;;;;;;;12.35;10.02;;;26.20;29.00;;;;;;5088761;28;20052;-62
2021/09/04 18:59:15;;;;;;;16.15;10.75;;;26.20;29.20;;;;;;5093947;28;20024;-61
2021/09/04 19:01:41;;;;;;;11.75;10.52;;;26.10;29.50;;;;;;5094804;28;20035;-61
2021/09/04 19:04:07;;;;;;;17.20;13.02;;;26.00;29.60;;;;;;5093852;28;20024;-63
2021/09/04 19:06:32;;;;;;;11.90;8.85;;;26.00;29.30;;;;;;5093075;28;20073;-63
2021/09/04 19:08:58;;;;;;;11.30;8.60;;;26.00;28.70;;;;;;5093484;28;20024;-63
2021/09/04 19:11:23;;;;;;;10.00;8.05;;;26.00;28.80;;;;;;5094403;28;20553;-63
2021/09/04 19:13:50;;;;;;;13.88;11.05;;;26.00;29.00;;;;;;5091362;28;20034;-62
2021/09/04 19:16:15;;;;;;;13.63;9.50;;;25.90;29.30;;;;;;5094305;28;20028;-62
2021/09/04 19:18:41;;;;;;;12.88;11.02;;;25.90;29.30;;;;;;5092817;28;20035;-62
2021/09/04 19:21:08;;;;;;;15.80;13.38;;;25.80;29.10;;;;;;5093771;28;20146;-62
2021/09/04 19:23:34;;;;;;;12.93;9.45;;;25.80;29.30;;;;;;5093417;28;20064;-62
2021/09/04 19:25:59;;;;;;;9.77;7.50;;;25.70;29.00;;;;;;5083448;28;20059;-62
2021/09/04 19:28:25;;;;;;;9.93;6.90;;;25.70;29.20;;;;;;5088453;28;20024;-62
2021/09/04 19:30:51;;;;;;;9.55;7.47;;;25.70;29.20;;;;;;5094508;28;20026;-62
2021/09/04 19:33:17;;;;;;;7.95;6.68;;;25.60;29.30;;;;;;5092681;28;20101;-62
2021/09/04 19:35:43;;;;;;;10.98;8.48;;;25.50;29.40;;;;;;5075889;28;20036;-62
2021/09/04 19:38:08;;;;;;;10.73;8.13;;;25.50;29.50;;;;;;5092927;28;20024;-62
2021/09/04 19:40:38;;;;;;;7.05;6.00;;;25.50;29.60;;;;;;5093255;28;20028;-62
2021/09/04 19:43:04;;;;;;;10.85;8.93;;;25.50;29.60;;;;;;5086906;28;20024;-62
2021/09/04 19:45:29;;;;;;;12.05;7.20;;;25.40;29.80;;;;;;5094257;28;20378;-63
2021/09/04 19:47:55;;;;;;;17.45;10.43;;;25.40;30.50;;;;;;5093229;28;20028;-63
2021/09/04 19:50:20;;;;;;;12.63;8.50;;;25.30;30.20;;;;;;5093552;28;20111;-62
2021/09/04 19:52:46;;;;;;;18.90;15.00;;;25.30;30.00;;;;;;5092843;28;20077;-62
2021/09/04 19:55:13;;;;;;;9.15;6.53;;;25.40;30.80;;;;;;5077343;28;20427;-62
2021/09/04 19:57:38;;;;;;;10.18;7.32;;;25.20;30.80;;;;;;5073818;28;20028;-62
2021/09/04 20:00:05;;;;;;;11.52;9.35;;;25.20;31.00;;;;;;5093158;28;20383;-62
2021/09/04 20:02:30;;;;;;;17.17;12.63;;;25.10;30.60;;;;;;5093560;28;20078;-62
2021/09/04 20:04:56;;;;;;;21.17;15.27;;;25.00;31.50;;;;;;5075633;28;20032;-62
2021/09/04 20:07:21;;;;;;;7.90;6.60;;;25.00;30.90;;;;;;5073213;28;20024;-62
2021/09/04 20:09:47;;;;;;;10.18;8.88;;;25.00;30.80;;;;;;5089982;28;20035;-62
2021/09/04 20:12:13;;;;;;;7.13;5.38;;;25.00;31.30;;;;;;5092649;28;20553;-62
2021/09/04 20:14:38;;;;;;;8.20;5.97;;;25.00;31.10;;;;;;5092215;28;20074;-63
2021/09/04 20:17:04;;;;;;;12.95;10.52;;;24.90;31.70;;;;;;5092919;28;20374;-62
2021/09/04 20:19:29;;;;;;;7.25;5.47;;;25.00;36.00;;;;;;5091775;28;20500;-62
2021/09/04 20:21:55;;;;;;;8.05;6.07;;;24.90;45.80;;;;;;5074774;28;20027;-63
2021/09/04 20:24:21;;;;;;;17.80;13.48;;;24.90;39.60;;;;;;5091880;28;20043;-62
2021/09/04 20:26:47;;;;;;;10.85;8.40;;;24.80;36.60;;;;;;5093926;28;20028;-62
2021/09/04 20:29:12;;;;;;;9.52;7.97;;;24.80;34.80;;;;;;5092356;28;20107;-63
2021/09/04 20:31:38;;;;;;;17.23;12.48;;;24.80;33.80;;;;;;5092641;28;20056;-62
2021/09/04 20:34:03;;;;;;;12.25;8.70;;;24.70;32.50;;;;;;5073983;28;20035;-63
2021/09/04 20:41:44;;;;;;;8.00;7.20;;;24.60;33.00;;;;;;5092971;28;20153;-62
2021/09/04 20:44:13;;;;;;;12.15;9.88;;;24.60;33.10;;;;;;5092371;28;20390;-61
2021/09/04 20:46:41;;;;;;;14.48;9.68;;;24.60;33.40;;;;;;5092996;28;20103;-61
2021/09/04 20:49:07;;;;;;;13.43;11.20;;;24.60;33.10;;;;;;5092391;28;20034;-62
2021/09/04 20:51:32;;;;;;;8.25;6.03;;;24.60;33.10;;;;;;5092635;28;20031;-62
2021/09/04 20:53:58;;;;;;;11.90;7.72;;;24.50;32.50;;;;;;5091893;28;20038;-61
2021/09/04 20:56:24;;;;;;;6.93;6.28;;;24.50;33.00;;;;;;5092608;28;20552;-62
2021/09/04 20:58:49;;;;;;;9.10;8.07;;;24.50;33.10;;;;;;5091987;28;20036;-61
2021/09/04 21:01:15;;;;;;;10.57;7.35;;;24.50;33.20;;;;;;5092098;28;20032;-62
2021/09/04 21:03:41;;;;;;;9.43;5.90;;;24.40;33.80;;;;;;5091662;28;20039;-62
2021/09/04 21:06:07;;;;;;;11.90;7.22;;;24.40;34.30;;;;;;5090389;28;20016;-62
2021/09/04 21:08:33;;;;;;;11.45;8.13;;;24.30;34.80;;;;;;5074523;28;20036;-61
2021/09/04 21:10:58;;;;;;;16.40;11.82;;;24.30;34.70;;;;;;5091760;28;20028;-61
2021/09/04 21:13:24;;;;;;;13.93;9.57;;;24.30;35.00;;;;;;5092345;28;20036;-61
2021/09/04 21:15:50;;;;;;;7.03;5.88;;;24.30;34.30;;;;;;5089288;28;20620;-62
2021/09/04 21:18:15;;;;;;;16.00;11.70;;;24.30;35.00;;;;;;5073637;28;20028;-62
2021/09/04 21:20:41;;;;;;;12.30;9.88;;;24.30;35.00;;;;;;5090793;28;20024;-62
2021/09/04 21:23:06;;;;;;;11.63;8.07;;;24.30;35.00;;;;;;5092672;28;20339;-62
2021/09/04 21:25:35;;;;;;;9.38;7.30;;;24.30;34.60;;;;;;5073631;28;20032;-62
2021/09/04 21:28:02;;;;;;;7.53;5.95;;;24.30;34.70;;;;;;5092692;28;20051;-62
2021/09/04 21:30:27;;;;;;;13.73;10.05;;;24.30;34.90;;;;;;5090591;28;20027;-61
2021/09/04 21:32:53;;;;;;;12.80;9.27;;;24.30;35.20;;;;;;5092906;28;20035;-62
2021/09/04 21:35:18;;;;;;;26.70;17.10;;;24.20;34.80;;;;;;5071586;28;20099;-62
2021/09/04 21:37:45;;;;;;;19.02;12.38;;;24.30;35.10;;;;;;5092373;28;20036;-62
2021/09/04 21:40:11;;;;;;;13.02;9.73;;;24.30;35.30;;;;;;5091796;28;20027;-62
2021/09/04 21:42:37;;;;;;;11.68;7.50;;;24.20;35.00;;;;;;5093480;28;20028;-62
2021/09/04 21:45:08;;;;;;;15.10;10.77;;;24.30;35.10;;;;;;5077191;28;20028;-62
2021/09/04 21:47:34;;;;;;;8.77;6.68;;;24.20;35.50;;;;;;5096476;28;20028;-63
2021/09/04 21:50:01;;;;;;;10.02;8.45;;;24.10;35.40;;;;;;5077146;28;20024;-63
2021/09/04 21:52:26;;;;;;;15.95;11.40;;;24.10;35.60;;;;;;5081328;28;20028;-62
2021/09/04 21:54:52;;;;;;;13.95;9.13;;;24.10;35.30;;;;;;5075307;28;20588;-62
2021/09/04 21:57:18;;;;;;;19.52;14.50;;;24.10;35.40;;;;;;5096058;28;20551;-63
2021/09/04 21:59:44;;;;;;;10.13;8.60;;;24.10;35.90;;;;;;5095405;28;20024;-63
2021/09/04 22:02:13;;;;;;;23.05;16.10;;;24.00;35.60;;;;;;5095333;28;20050;-63
2021/09/04 22:04:40;;;;;;;10.95;7.65;;;24.10;36.00;;;;;;5095243;28;20024;-63
2021/09/04 22:07:07;;;;;;;10.60;7.38;;;24.00;35.70;;;;;;5077181;28;20469;-63
2021/09/04 22:09:33;;;;;;;8.73;7.82;;;24.00;35.70;;;;;;5096214;28;20106;-63
2021/09/04 22:11:58;;;;;;;15.75;12.60;;;24.00;36.10;;;;;;5094663;28;20032;-63
2021/09/04 22:14:25;;;;;;;12.23;10.52;;;24.00;36.40;;;;;;5096094;28;20028;-62
2021/09/04 22:16:50;;;;;;;8.50;7.55;;;23.90;36.50;;;;;;5094787;28;20065;-63
2021/09/04 22:19:19;;;;;;;12.23;10.10;;;23.90;36.30;;;;;;5095985;28;20359;-63
2021/09/04 22:21:45;;;;;;;20.13;16.30;;;23.90;36.70;;;;;;5094667;28;20036;-63
2021/09/04 22:24:11;;;;;;;12.85;10.65;;;23.90;36.80;;;;;;5075340;28;20039;-63
2021/09/04 22:26:37;;;;;;;13.00;11.23;;;23.90;36.80;;;;;;5089752;28;20116;-62
2021/09/04 22:29:03;;;;;;;9.30;8.13;;;23.80;37.00;;;;;;5094607;28;20366;-63
2021/09/04 22:31:28;;;;;;;12.77;9.98;;;23.80;37.30;;;;;;5094596;28;20031;-63
2021/09/04 22:33:55;;;;;;;14.20;9.80;;;23.90;37.50;;;;;;5094326;28;20031;-63
2021/09/04 22:36:23;;;;;;;12.10;9.88;;;23.80;37.40;;;;;;5093157;28;20088;-63
2021/09/04 22:38:50;;;;;;;15.27;10.63;;;23.80;37.80;;;;;;5095663;28;20028;-63
2021/09/04 22:41:16;;;;;;;13.68;9.50;;;23.70;38.30;;;;;;5076306;28;20020;-62
2021/09/04 22:43:42;;;;;;;16.90;13.25;;;23.80;37.90;;;;;;5095314;28;20351;-63
2021/09/04 22:46:11;;;;;;;14.70;11.77;;;23.80;37.80;;;;;;5094178;28;20020;-62
2021/09/04 22:48:37;;;;;;;9.85;8.35;;;23.80;38.20;;;;;;5095093;28;20021;-62
2021/09/04 22:51:04;;;;;;;14.95;10.43;;;23.70;38.30;;;;;;5094536;28;20028;-62
2021/09/04 22:53:29;;;;;;;7.55;6.72;;;23.70;38.30;;;;;;5094867;28;20440;-62
2021/09/04 22:55:55;;;;;;;7.03;6.32;;;23.70;38.60;;;;;;5075698;28;20048;-62
2021/09/04 22:58:20;;;;;;;8.68;7.38;;;23.70;38.50;;;;;;5095051;28;20023;-62
2021/09/04 23:00:46;;;;;;;8.10;7.30;;;23.60;38.40;;;;;;5093228;28;20448;-62
2021/09/04 23:03:13;;;;;;;9.68;6.95;;;23.60;38.40;;;;;;5094894;28;20038;-62
2021/09/04 23:05:38;;;;;;;10.85;7.93;;;23.60;38.30;;;;;;5074460;28;20031;-62
2021/09/04 23:08:04;;;;;;;12.35;9.48;;;23.60;38.10;;;;;;5094919;28;20107;-62
2021/09/04 23:10:30;;;;;;;12.88;9.32;;;23.70;38.40;;;;;;5094180;28;20101;-62
2021/09/04 23:12:56;;;;;;;12.23;7.75;;;23.60;38.30;;;;;;5095151;28;20027;-62
2021/09/04 23:15:23;;;;;;;8.65;7.40;;;23.70;37.80;;;;;;5091673;28;20489;-63
2021/09/04 23:17:49;;;;;;;9.82;8.13;;;23.70;37.90;;;;;;5095082;28;20035;-63
2021/09/04 23:20:16;;;;;;;10.90;7.93;;;23.70;37.80;;;;;;5093391;28;20024;-62
2021/09/04 23:22:49;;;;;;;12.27;10.60;;;23.70;37.90;;;;;;5074116;28;20028;-62
2021/09/04 23:25:16;;;;;;;9.00;6.75;;;23.70;38.50;;;;;;5074322;28;20528;-63
2021/09/04 23:27:44;;;;;;;8.98;7.80;;;23.70;38.70;;;;;;5093274;28;20032;-62
2021/09/04 23:30:12;;;;;;;16.10;11.40;;;23.70;38.10;;;;;;5094024;28;20032;-62
2021/09/04 23:32:38;;;;;;;12.95;10.35;;;23.70;38.10;;;;;;5093450;28;20032;-63
2021/09/04 23:35:05;;;;;;;9.55;7.97;;;23.70;38.50;;;;;;5076007;28;20024;-62
2021/09/04 23:37:31;;;;;;;10.25;7.30;;;23.80;38.30;;;;;;5093300;28;20553;-63
2021/09/04 23:39:57;;;;;;;11.02;8.30;;;23.70;38.20;;;;;;5093861;28;20555;-63
2021/09/04 23:42:23;;;;;;;10.40;8.00;;;23.70;38.40;;;;;;5093524;28;20036;-62
2021/09/04 23:44:48;;;;;;;11.93;9.48;;;23.70;38.40;;;;;;5076796;28;20024;-62
2021/09/04 23:47:14;;;;;;;11.10;8.18;;;23.70;38.40;;;;;;5093066;28;20032;-63
2021/09/04 23:49:40;;;;;;;14.82;10.45;;;23.70;38.40;;;;;;5093605;28;20095;-62
2021/09/04 23:52:05;;;;;;;10.80;9.35;;;23.70;38.60;;;;;;5093260;28;20111;-62
2021/09/04 23:54:31;;;;;;;14.88;10.85;;;23.70;38.70;;;;;;5094198;28;20073;-62
2021/09/04 23:56:57;;;;;;;16.80;11.88;;;23.60;39.50;;;;;;5073680;28;20055;-62
2021/09/04 23:59:22;;;;;;;15.88;10.82;;;23.70;39.00;;;;;;5093869;28;20103;-62
